createdAt,value
2023-02-25T00:02:24.852Z,30.60
2023-02-25T00:05:26.660Z,29.80
2023-02-25T00:08:28.482Z,29.00
2023-02-25T00:11:30.387Z,30.50
2023-02-25T00:14:32.065Z,26.80
2023-02-25T00:17:34.081Z,29.00
2023-02-25T00:20:39.926Z,25.80
2023-02-25T00:23:43.292Z,28.80
2023-02-25T00:26:45.279Z,33.60
2023-02-25T00:29:52.106Z,29.70
2023-02-25T00:32:53.720Z,29.60
2023-02-25T00:35:55.328Z,31.20
2023-02-25T00:38:57.770Z,31.60
2023-02-25T00:41:59.355Z,28.50
2023-02-25T00:45:00.918Z,29.20
2023-02-25T00:48:02.517Z,30.70
2023-02-25T00:51:05.968Z,31.80
2023-02-25T00:54:07.552Z,29.40
2023-02-25T00:57:09.389Z,30.00
2023-02-25T01:00:16.303Z,29.10
2023-02-25T01:03:18.069Z,29.70
2023-02-25T01:06:20.011Z,28.20
2023-02-25T01:09:22.422Z,28.30
2023-02-25T01:12:24.090Z,28.30
2023-02-25T01:15:30.789Z,29.10
2023-02-25T01:18:34.671Z,29.80
2023-02-25T01:21:38.866Z,30.00
2023-02-25T01:27:41.996Z,29.70
2023-02-25T01:30:45.037Z,29.60
2023-02-25T01:33:46.882Z,31.10
2023-02-25T01:36:49.091Z,29.50
2023-02-25T01:39:50.761Z,31.20
2023-02-25T01:42:52.906Z,31.50
2023-02-25T01:45:56.409Z,34.40
2023-02-25T01:48:58.370Z,34.20
2023-02-25T01:52:09.885Z,32.30
2023-02-25T01:55:11.658Z,33.70
2023-02-25T01:58:13.523Z,31.70
2023-02-25T02:01:19.357Z,31.40
2023-02-25T02:04:22.290Z,32.70
2023-02-25T02:07:24.855Z,33.70
2023-02-25T02:10:26.540Z,24.30
2023-02-25T02:13:29.642Z,24.90
2023-02-25T02:16:41.356Z,24.20
2023-02-25T02:19:52.178Z,22.00
2023-02-25T02:23:12.348Z,23.10
2023-02-25T02:26:16.936Z,26.20
2023-02-25T02:29:27.101Z,29.90
2023-02-25T02:32:48.353Z,30.80
2023-02-25T02:36:08.485Z,29.00
2023-02-25T02:39:39.070Z,32.10
2023-02-25T02:43:49.471Z,33.10
2023-02-25T02:47:25.913Z,28.90
2023-02-25T02:53:37.232Z,25.60
2023-02-25T02:56:40.736Z,28.70
2023-02-25T02:59:47.692Z,25.20
2023-02-25T03:02:52.929Z,25.30
2023-02-25T03:05:54.850Z,28.00
2023-02-25T03:09:03.542Z,23.80
2023-02-25T03:12:07.767Z,23.70
2023-02-25T03:15:10.151Z,29.20
2023-02-25T03:18:39.412Z,30.30
2023-02-25T03:21:49.608Z,29.00
2023-02-25T03:24:55.813Z,29.30
2023-02-25T03:28:03.653Z,32.30
2023-02-25T03:31:09.689Z,33.00
2023-02-25T03:34:21.592Z,31.70
2023-02-25T03:37:26.585Z,29.60
2023-02-25T03:40:28.951Z,29.90
2023-02-25T03:43:36.149Z,30.70
2023-02-25T03:46:39.681Z,28.30
2023-02-25T03:49:47.267Z,31.00
2023-02-25T03:52:48.906Z,29.40
2023-02-25T03:56:09.254Z,31.00
2023-02-25T03:59:11.238Z,30.50
2023-02-25T04:02:15.821Z,32.30
2023-02-25T04:05:19.742Z,28.30
2023-02-25T04:08:21.631Z,29.30
2023-02-25T04:11:23.231Z,27.90
2023-02-25T04:14:25.145Z,29.00
2023-02-25T04:17:26.807Z,29.50
2023-02-25T04:20:29.899Z,26.70
2023-02-25T04:23:31.543Z,29.30
2023-02-25T04:26:34.406Z,33.30
2023-02-25T04:29:36.042Z,29.80
2023-02-25T04:32:37.807Z,28.60
2023-02-25T04:35:39.678Z,30.90
2023-02-25T04:38:42.388Z,28.20
2023-02-25T04:41:44.491Z,31.30
2023-02-25T04:44:46.368Z,29.20
2023-02-25T04:47:47.972Z,28.80
2023-02-25T04:50:49.658Z,33.10
2023-02-25T04:53:51.392Z,29.60
2023-02-25T04:56:52.983Z,29.70
2023-02-25T04:59:54.573Z,30.50
2023-02-25T05:02:56.548Z,27.70
2023-02-25T05:05:58.357Z,26.80
2023-02-25T05:08:59.945Z,29.00
2023-02-25T05:12:02.116Z,30.40
2023-02-25T05:15:05.258Z,28.90
2023-02-25T05:18:07.141Z,29.40
2023-02-25T05:21:14.651Z,27.10
2023-02-25T05:24:16.620Z,28.00
2023-02-25T05:27:18.174Z,29.30
2023-02-25T05:30:19.826Z,25.40
2023-02-25T05:33:21.421Z,25.40
2023-02-25T05:36:25.828Z,24.50
2023-02-25T05:39:29.166Z,26.30
2023-02-25T05:42:30.731Z,27.20
2023-02-25T05:45:32.536Z,28.60
2023-02-25T05:48:34.036Z,24.60
2023-02-25T05:51:35.560Z,28.90
2023-02-25T05:54:37.128Z,26.20
2023-02-25T05:57:38.717Z,21.80
2023-02-25T06:00:40.445Z,22.70
2023-02-25T06:03:43.688Z,27.50
2023-02-25T06:06:50.388Z,28.00
2023-02-25T06:09:52.177Z,25.90
2023-02-25T06:12:53.788Z,24.50
2023-02-25T06:15:55.484Z,25.20
2023-02-25T06:18:57.210Z,19.30
2023-02-25T06:21:58.793Z,19.70
2023-02-25T06:25:00.353Z,21.20
2023-02-25T06:28:02.454Z,21.60
2023-02-25T06:31:11.081Z,25.50
2023-02-25T06:34:12.785Z,26.20
2023-02-25T06:37:16.383Z,29.60
2023-02-25T06:40:18.399Z,25.00
2023-02-25T06:43:19.916Z,22.40
2023-02-25T06:46:24.157Z,21.60
2023-02-25T06:52:27.528Z,19.30
2023-02-25T06:55:29.106Z,22.90
2023-02-25T06:58:30.660Z,21.20
2023-02-25T07:01:32.284Z,23.90
2023-02-25T07:04:34.045Z,22.70
2023-02-25T07:07:35.592Z,22.20
2023-02-25T07:10:37.173Z,24.70
2023-02-25T07:13:38.762Z,23.00
2023-02-25T07:16:40.563Z,23.20
2023-02-25T07:19:42.132Z,24.60
2023-02-25T07:22:43.966Z,24.60
2023-02-25T07:25:46.854Z,24.20
2023-02-25T07:28:48.413Z,23.70
2023-02-25T07:31:50.093Z,24.60
2023-02-25T07:34:51.695Z,25.70
2023-02-25T07:37:53.248Z,23.30
2023-02-25T07:40:54.866Z,22.60
2023-02-25T07:43:56.531Z,22.50
2023-02-25T07:46:58.284Z,22.90
2023-02-25T07:49:59.861Z,21.00
2023-02-25T07:53:01.429Z,23.10
2023-02-25T07:56:03.109Z,21.80
2023-02-25T07:59:04.635Z,20.20
2023-02-25T08:02:06.404Z,20.90
2023-02-25T08:05:09.184Z,19.00
2023-02-25T08:08:10.700Z,18.00
2023-02-25T08:11:13.771Z,18.90
2023-02-25T08:14:15.401Z,17.50
2023-02-25T08:17:17.472Z,16.90
2023-02-25T08:20:19.130Z,17.80
2023-02-25T08:23:20.698Z,18.40
2023-02-25T08:26:23.793Z,16.40
2023-02-25T08:29:25.591Z,17.20
2023-02-25T08:32:27.636Z,15.80
2023-02-25T08:35:29.218Z,16.60
2023-02-25T08:38:30.789Z,17.40
2023-02-25T08:41:32.448Z,15.40
2023-02-25T08:44:33.957Z,17.60
2023-02-25T08:47:37.417Z,16.60
2023-02-25T08:50:38.976Z,16.50
2023-02-25T08:53:41.111Z,17.10
2023-02-25T08:56:46.044Z,16.80
2023-02-25T08:59:48.782Z,17.80
2023-02-25T09:02:50.383Z,16.50
2023-02-25T09:05:56.005Z,17.80
2023-02-25T09:08:57.943Z,16.60
2023-02-25T09:12:00.208Z,17.80
2023-02-25T09:15:02.565Z,18.90
2023-02-25T09:18:04.576Z,17.60
2023-02-25T09:21:07.335Z,18.00
2023-02-25T09:24:09.317Z,20.80
2023-02-25T09:27:10.921Z,17.70
2023-02-25T09:30:12.976Z,19.10
2023-02-25T09:33:14.877Z,17.50
2023-02-25T09:36:19.029Z,18.10
2023-02-25T09:39:20.620Z,18.40
2023-02-25T09:42:23.645Z,17.60
2023-02-25T09:45:26.474Z,16.30
2023-02-25T09:48:32.090Z,18.70
2023-02-25T09:51:37.076Z,16.20
2023-02-25T09:54:44.617Z,17.10
2023-02-25T09:58:02.955Z,16.90
2023-02-25T10:01:10.476Z,15.20
2023-02-25T10:04:30.462Z,17.10
2023-02-25T10:07:35.960Z,15.80
2023-02-25T10:10:53.008Z,15.00
2023-02-25T10:13:59.872Z,13.70
2023-02-25T10:17:27.342Z,12.80
2023-02-25T10:20:49.425Z,12.10
2023-02-25T10:24:03.225Z,13.70
2023-02-25T10:27:17.362Z,14.00
2023-02-25T10:30:59.723Z,14.60
2023-02-25T10:34:18.387Z,15.40
2023-02-25T10:37:26.991Z,15.30
2023-02-25T10:40:31.557Z,15.20
2023-02-25T10:43:34.457Z,15.50
2023-02-25T10:46:39.044Z,15.30
2023-02-25T10:49:40.703Z,14.60
2023-02-25T10:53:01.906Z,10.20
2023-02-25T10:56:04.114Z,12.90
2023-02-25T10:59:24.534Z,12.60
2023-02-25T11:02:28.729Z,13.20
2023-02-25T11:05:31.564Z,12.90
2023-02-25T11:08:33.345Z,14.50
2023-02-25T11:11:39.141Z,12.90
2023-02-25T11:14:40.766Z,12.60
2023-02-25T11:17:44.270Z,13.70
2023-02-25T11:20:56.650Z,13.70
2023-02-25T11:24:05.213Z,11.80
2023-02-25T11:27:08.111Z,11.80
2023-02-25T11:30:12.367Z,12.60
2023-02-25T11:33:34.924Z,9.70
2023-02-25T11:36:38.925Z,8.00
2023-02-25T11:39:52.346Z,8.70
2023-02-25T11:43:01.321Z,9.80
2023-02-25T11:46:08.448Z,8.90
2023-02-25T11:49:10.503Z,7.70
2023-02-25T11:52:33.905Z,10.10
2023-02-25T11:55:35.480Z,9.80
2023-02-25T11:58:52.318Z,8.80
2023-02-25T12:02:15.598Z,9.00
2023-02-25T12:05:32.260Z,8.60
2023-02-25T12:09:05.723Z,9.30
2023-02-25T12:12:17.608Z,7.90
2023-02-25T12:15:45.225Z,7.80
2023-02-25T12:19:11.499Z,8.80
2023-02-25T12:22:16.126Z,8.60
2023-02-25T12:25:28.607Z,7.30
2023-02-25T12:28:45.575Z,7.60
2023-02-25T12:32:16.444Z,7.00
2023-02-25T12:35:30.152Z,7.70
2023-02-25T12:38:55.984Z,7.80
2023-02-25T12:42:25.527Z,6.80
2023-02-25T12:45:33.034Z,6.50
2023-02-25T12:48:56.274Z,6.10
2023-02-25T12:52:35.622Z,6.60
2023-02-25T12:55:57.092Z,7.80
2023-02-25T12:59:01.401Z,8.10
2023-02-25T13:02:20.043Z,7.50
2023-02-25T13:05:52.719Z,6.60
2023-02-25T13:09:12.397Z,7.80
2023-02-25T13:12:47.029Z,7.40
2023-02-25T13:15:54.571Z,7.00
2023-02-25T13:19:26.728Z,7.00
2023-02-25T13:22:34.479Z,6.00
2023-02-25T13:26:08.550Z,6.60
2023-02-25T13:29:33.917Z,6.90
2023-02-25T13:33:00.326Z,8.40
2023-02-25T13:36:25.315Z,6.90
2023-02-25T13:39:45.814Z,7.20
2023-02-25T13:43:03.702Z,8.20
2023-02-25T13:46:28.568Z,8.30
2023-02-25T13:50:07.902Z,7.80
2023-02-25T13:53:32.376Z,7.60
2023-02-25T13:57:06.565Z,7.70
2023-02-25T14:00:42.121Z,7.90
2023-02-25T14:04:05.446Z,7.90
2023-02-25T14:07:22.016Z,7.80
2023-02-25T14:10:45.135Z,9.40
2023-02-25T14:14:13.409Z,8.00
2023-02-25T14:17:59.199Z,9.30
2023-02-25T14:21:09.295Z,9.90
2023-02-25T14:24:32.207Z,8.80
2023-02-25T14:27:41.934Z,8.90
2023-02-25T14:31:07.389Z,8.80
2023-02-25T14:34:27.851Z,8.40
2023-02-25T14:37:34.917Z,8.50
2023-02-25T14:40:42.531Z,10.10
2023-02-25T14:43:46.797Z,10.70
2023-02-25T14:46:52.975Z,10.30
2023-02-25T14:50:03.541Z,8.80
2023-02-25T14:53:35.932Z,9.50
2023-02-25T14:56:51.363Z,11.20
2023-02-25T15:00:30.974Z,9.60
2023-02-25T15:04:00.472Z,10.00
2023-02-25T15:07:15.369Z,10.80
2023-02-25T15:10:30.097Z,10.50
2023-02-25T15:13:34.822Z,11.20
2023-02-25T15:16:42.550Z,9.60
2023-02-25T15:20:04.462Z,11.60
2023-02-25T15:23:11.728Z,11.40
2023-02-25T15:26:21.761Z,11.10
2023-02-25T15:32:46.819Z,10.60
2023-02-25T15:35:48.323Z,11.50
2023-02-25T15:38:51.811Z,10.40
2023-02-25T15:42:03.770Z,11.30
2023-02-25T15:45:29.359Z,12.20
2023-02-25T15:48:33.753Z,11.80
2023-02-25T15:51:44.537Z,12.70
2023-02-25T15:54:47.198Z,14.00
2023-02-25T15:57:48.857Z,13.80
2023-02-25T16:01:05.966Z,14.00
2023-02-25T16:04:50.284Z,13.70
2023-02-25T16:08:03.224Z,12.50
2023-02-25T16:11:06.822Z,13.70
2023-02-25T16:14:15.689Z,12.50
2023-02-25T16:17:28.867Z,11.90
2023-02-25T16:20:34.277Z,13.20
2023-02-25T16:23:40.046Z,12.20
2023-02-25T16:27:04.524Z,11.20
2023-02-25T16:30:26.086Z,13.60
2023-02-25T16:33:44.625Z,13.60
2023-02-25T16:37:11.621Z,13.70
2023-02-25T16:40:40.258Z,13.70
2023-02-25T16:43:43.444Z,14.10
2023-02-25T16:46:50.182Z,13.50
2023-02-25T16:49:53.354Z,15.70
2023-02-25T16:52:55.407Z,14.70
2023-02-25T16:55:58.855Z,14.10
2023-02-25T16:59:21.773Z,17.80
2023-02-25T17:02:25.106Z,20.30
2023-02-25T17:05:26.617Z,22.60
2023-02-25T17:08:28.382Z,24.00
2023-02-25T17:11:30.417Z,23.20
2023-02-25T17:14:32.224Z,25.70
2023-02-25T17:17:37.262Z,24.40
2023-02-25T17:20:39.991Z,22.40
2023-02-25T17:23:42.035Z,23.30
2023-02-25T17:26:46.185Z,24.70
2023-02-25T17:29:48.887Z,23.80
2023-02-25T17:32:58.940Z,23.20
2023-02-25T17:36:12.126Z,21.20
2023-02-25T17:39:20.934Z,24.00
2023-02-25T17:42:34.791Z,23.30
2023-02-25T17:45:39.186Z,22.00
2023-02-25T17:48:43.347Z,21.80
2023-02-25T17:51:46.054Z,21.80
2023-02-25T17:54:53.732Z,22.00
2023-02-25T17:57:58.170Z,21.30
2023-02-25T18:01:02.834Z,20.50
2023-02-25T18:04:06.073Z,20.00
2023-02-25T18:07:23.200Z,21.60
2023-02-25T18:10:30.884Z,21.50
2023-02-25T18:13:37.350Z,22.10
2023-02-25T18:16:41.163Z,21.00
2023-02-25T18:19:46.008Z,21.90
2023-02-25T18:22:48.686Z,21.70
2023-02-25T18:26:09.627Z,22.60
2023-02-25T18:29:20.594Z,24.40
2023-02-25T18:32:22.146Z,21.40
2023-02-25T18:35:24.187Z,24.90
2023-02-25T18:38:27.042Z,23.60
2023-02-25T18:41:28.703Z,22.00
2023-02-25T18:44:30.235Z,25.50
2023-02-25T18:47:31.797Z,25.20
2023-02-25T18:50:33.594Z,24.90
2023-02-25T18:53:35.314Z,25.50
2023-02-25T18:56:36.864Z,25.90
2023-02-25T18:59:38.402Z,22.60
2023-02-25T19:02:47.811Z,24.20
2023-02-25T19:05:49.425Z,24.40
2023-02-25T19:08:51.057Z,24.20
2023-02-25T19:11:52.711Z,23.90
2023-02-25T19:14:59.788Z,22.50
2023-02-25T19:18:01.411Z,24.10
2023-02-25T19:21:04.008Z,22.00
2023-02-25T19:24:06.344Z,26.00
2023-02-25T19:27:27.508Z,21.70
2023-02-25T19:30:31.313Z,24.20
2023-02-25T19:33:33.773Z,24.20
2023-02-25T19:36:35.354Z,24.20
2023-02-25T19:39:36.900Z,27.00
2023-02-25T19:42:39.511Z,25.20
2023-02-25T19:45:41.168Z,23.30
2023-02-25T19:48:43.392Z,24.20
2023-02-25T19:51:44.994Z,24.30
2023-02-25T19:54:46.576Z,23.80
2023-02-25T19:57:48.370Z,26.00
2023-02-25T20:00:50.025Z,24.60
2023-02-25T20:03:52.220Z,23.30
2023-02-25T20:06:53.807Z,25.50
2023-02-25T20:09:55.308Z,24.00
2023-02-25T20:12:56.898Z,23.10
2023-02-25T20:16:01.865Z,24.20
2023-02-25T20:19:03.546Z,23.50
2023-02-25T20:22:06.198Z,25.00
2023-02-25T20:25:09.990Z,24.80
2023-02-25T20:28:11.772Z,25.20
2023-02-25T20:31:16.288Z,24.20
2023-02-25T20:34:21.553Z,24.20
2023-02-25T20:37:24.728Z,25.60
2023-02-25T20:40:26.587Z,23.40
2023-02-25T20:43:28.402Z,25.10
2023-02-25T20:46:30.028Z,24.70
2023-02-25T20:49:31.688Z,24.40
2023-02-25T20:52:33.349Z,24.60
2023-02-25T20:55:34.920Z,26.30
2023-02-25T20:58:36.665Z,23.70
2023-02-25T21:01:38.340Z,24.30
2023-02-25T21:04:39.992Z,24.80
2023-02-25T21:07:41.657Z,24.30
2023-02-25T21:10:43.475Z,24.60
2023-02-25T21:13:47.884Z,26.10
2023-02-25T21:16:54.301Z,24.80
2023-02-25T21:19:55.918Z,25.00
2023-02-25T21:22:57.520Z,23.90
2023-02-25T21:25:59.040Z,23.80
2023-02-25T21:29:00.640Z,23.70
2023-02-25T21:32:02.257Z,24.10
2023-02-25T21:35:04.358Z,23.40
2023-02-25T21:38:05.921Z,24.90
2023-02-25T21:41:10.840Z,25.50
2023-02-25T21:44:12.759Z,23.90
2023-02-25T21:47:14.486Z,26.80
2023-02-25T21:50:16.445Z,27.60
2023-02-25T21:53:18.652Z,26.40
2023-02-25T21:56:20.200Z,25.60
2023-02-25T21:59:23.322Z,28.00
2023-02-25T22:02:25.784Z,24.10
2023-02-25T22:05:27.362Z,24.30
2023-02-25T22:08:28.886Z,23.10
2023-02-25T22:11:32.640Z,24.10
2023-02-25T22:14:34.374Z,23.90
2023-02-25T22:17:36.494Z,25.00
2023-02-25T22:20:38.039Z,23.10
2023-02-25T22:23:40.963Z,24.00
2023-02-25T22:26:42.534Z,24.00
2023-02-25T22:29:44.046Z,24.90
2023-02-25T22:32:45.582Z,26.60
2023-02-25T22:35:58.382Z,24.50
2023-02-25T22:39:04.138Z,24.50
2023-02-25T22:42:05.759Z,23.70
2023-02-25T22:45:07.866Z,24.30
2023-02-25T22:48:09.459Z,22.90
2023-02-25T22:51:11.870Z,21.90
2023-02-25T22:54:15.608Z,23.70
2023-02-25T22:57:17.179Z,24.90
2023-02-25T23:00:19.770Z,26.50
2023-02-25T23:03:21.749Z,27.90
2023-02-25T23:06:37.532Z,27.00
2023-02-25T23:09:45.810Z,30.60
2023-02-25T23:12:47.676Z,27.90
2023-02-25T23:15:49.629Z,24.70
2023-02-25T23:18:51.775Z,24.10
2023-02-25T23:21:53.312Z,22.70
2023-02-25T23:24:55.097Z,23.30
2023-02-25T23:27:57.836Z,24.80
2023-02-25T23:30:59.752Z,25.00
2023-02-25T23:34:04.116Z,24.30
2023-02-25T23:37:05.677Z,24.80
2023-02-25T23:40:11.720Z,25.00
2023-02-25T23:43:13.276Z,24.40
2023-02-25T23:46:14.900Z,26.40
2023-02-25T23:49:17.554Z,23.30
2023-02-25T23:52:19.094Z,27.30
2023-02-25T23:55:21.277Z,26.30
2023-02-25T23:58:22.855Z,24.50
